joomla templates top joomla templates template joomla

King Air Abend

Notam

C3641/14 - CUSTOMS AVBL PPR, TEL 0049 9561 92098. 13 NOV 14:46 2014 UNTIL PERM. CREATED: 13 NOV 14:47 2014

Neue Wetteranzeige

Aktuelles Platzwetter Stand 24.06.2017 15:50Z

AvgMinMax
Windrichtung270240290Deg
Windgeschwindigkeit11218kt
Sichtweite>10000m
Temperatur24°C
Taupunkt12°C
Feuchte48%
QNH1015.3hPa
QFE961.8hPa
WolkenSKC

Aerodrome Terminal Information Service (ATIS) Coburg

METAR
EDQC 241550Z AUTO 27010KT CAVOK 24/12 Q1015=

METAR und TAF der Umgebung

[Quelle: ADDS]
METAR
EDDF 241520Z 23009KT 190V300 CAVOK 27/09 Q1014 NOSIG =
EDDN 241520Z 27014KT 240V310 CAVOK 27/10 Q1015 NOSIG =
EDDE 241520Z 25014KT 9999 SCT040 22/12 Q1014 TEMPO 25015G25KT =
TAF
EDDF 241100Z 2412/2518 23012KT CAVOK TEMPO 2412/2416 24015G25KT BECMG 2418/2421 22005KT BECMG 2506/2508 24012KT TEMPO 2510/2518 24015G25KT =
EDDN 241100Z 2412/2512 26012G25KT CAVOK BECMG 2417/2419 24005KT BECMG 2422/2424 12004KT BECMG 2507/2509 26010KT =
EDDE 241100Z 2412/2512 25015KT CAVOK TEMPO 2412/2415 26015G25KT BECMG 2417/2419 25007KT BECMG 2506/2508 25015G25KT =
SR / SS: 03:08 / 19:31 UTC (EDQC 2017-06-24)

Wetterverlauf

Windvorhersage

Verkehrslandeplatz Coburg Brandensteinsebene
Tower
Zur Brandensteinsebene
96450 Coburg

AeroClub Logo 200px

Aero Club Coburg e. V.
Postfach 11 09
96401 Coburg